sensor_id;sensor_type;location;lat;lon;timestamp;temperature;humidity
30520;DHT22;17300;50.374;8.006;2022-07-04T00:01:42;20.70;46.20
30520;DHT22;17300;50.374;8.006;2022-07-04T00:04:09;20.60;46.20
30520;DHT22;17300;50.374;8.006;2022-07-04T00:06:36;20.60;46.20
30520;DHT22;17300;50.374;8.006;2022-07-04T00:09:02;20.60;46.20
30520;DHT22;17300;50.374;8.006;2022-07-04T00:11:29;20.50;46.30
30520;DHT22;17300;50.374;8.006;2022-07-04T00:13:56;20.50;46.50
30520;DHT22;17300;50.374;8.006;2022-07-04T00:16:23;20.50;46.50
30520;DHT22;17300;50.374;8.006;2022-07-04T00:18:51;20.50;46.60
30520;DHT22;17300;50.374;8.006;2022-07-04T00:21:18;20.40;46.80
30520;DHT22;17300;50.374;8.006;2022-07-04T00:23:44;20.40;46.80
30520;DHT22;17300;50.374;8.006;2022-07-04T00:26:11;20.30;46.80
30520;DHT22;17300;50.374;8.006;2022-07-04T00:28:38;20.30;46.90
30520;DHT22;17300;50.374;8.006;2022-07-04T00:31:05;20.30;47.00
30520;DHT22;17300;50.374;8.006;2022-07-04T00:33:31;20.20;47.00
30520;DHT22;17300;50.374;8.006;2022-07-04T00:35:59;20.20;47.00
30520;DHT22;17300;50.374;8.006;2022-07-04T00:38:26;20.10;47.00
30520;DHT22;17300;50.374;8.006;2022-07-04T00:40:54;20.10;47.00
30520;DHT22;17300;50.374;8.006;2022-07-04T00:43:22;20.10;47.40
30520;DHT22;17300;50.374;8.006;2022-07-04T00:45:49;20.10;47.50
30520;DHT22;17300;50.374;8.006;2022-07-04T00:48:16;20.00;47.50
30520;DHT22;17300;50.374;8.006;2022-07-04T00:50:44;20.00;47.60
30520;DHT22;17300;50.374;8.006;2022-07-04T00:53:13;20.00;47.70
30520;DHT22;17300;50.374;8.006;2022-07-04T00:55:41;19.90;47.70
30520;DHT22;17300;50.374;8.006;2022-07-04T00:58:08;19.90;47.70
30520;DHT22;17300;50.374;8.006;2022-07-04T01:00:35;19.80;47.80
30520;DHT22;17300;50.374;8.006;2022-07-04T01:03:02;19.80;47.90
30520;DHT22;17300;50.374;8.006;2022-07-04T01:05:29;19.80;48.00
30520;DHT22;17300;50.374;8.006;2022-07-04T01:07:56;19.80;48.00
30520;DHT22;17300;50.374;8.006;2022-07-04T01:10:24;19.70;48.00
30520;DHT22;17300;50.374;8.006;2022-07-04T01:12:52;19.70;48.20
30520;DHT22;17300;50.374;8.006;2022-07-04T01:15:19;19.70;48.20
30520;DHT22;17300;50.374;8.006;2022-07-04T01:17:46;19.60;48.20
30520;DHT22;17300;50.374;8.006;2022-07-04T01:20:15;19.60;48.20
30520;DHT22;17300;50.374;8.006;2022-07-04T01:22:43;19.50;48.40
30520;DHT22;17300;50.374;8.006;2022-07-04T01:25:10;19.50;48.40
30520;DHT22;17300;50.374;8.006;2022-07-04T01:27:36;19.50;48.50
30520;DHT22;17300;50.374;8.006;2022-07-04T01:30:04;19.40;48.50
30520;DHT22;17300;50.374;8.006;2022-07-04T01:32:31;19.40;48.70
30520;DHT22;17300;50.374;8.006;2022-07-04T01:34:58;19.40;48.70
30520;DHT22;17300;50.374;8.006;2022-07-04T01:37:26;19.30;48.70
30520;DHT22;17300;50.374;8.006;2022-07-04T01:39:52;19.30;49.00
30520;DHT22;17300;50.374;8.006;2022-07-04T01:42:19;19.30;48.90
30520;DHT22;17300;50.374;8.006;2022-07-04T01:44:46;19.20;48.90
30520;DHT22;17300;50.374;8.006;2022-07-04T01:47:12;19.20;48.90
30520;DHT22;17300;50.374;8.006;2022-07-04T01:49:39;19.10;48.90
30520;DHT22;17300;50.374;8.006;2022-07-04T01:52:06;19.10;48.90
30520;DHT22;17300;50.374;8.006;2022-07-04T01:54:34;19.10;49.10
30520;DHT22;17300;50.374;8.006;2022-07-04T01:57:15;19.10;49.20
30520;DHT22;17300;50.374;8.006;2022-07-04T01:59:42;19.00;49.20
30520;DHT22;17300;50.374;8.006;2022-07-04T02:02:26;19.00;49.20
30520;DHT22;17300;50.374;8.006;2022-07-04T02:04:52;19.00;49.20
30520;DHT22;17300;50.374;8.006;2022-07-04T02:07:19;18.90;49.20
30520;DHT22;17300;50.374;8.006;2022-07-04T02:09:47;18.90;49.20
30520;DHT22;17300;50.374;8.006;2022-07-04T02:12:14;18.90;49.40
30520;DHT22;17300;50.374;8.006;2022-07-04T02:14:58;18.80;49.40
30520;DHT22;17300;50.374;8.006;2022-07-04T02:17:25;18.80;49.40
30520;DHT22;17300;50.374;8.006;2022-07-04T02:19:52;18.80;49.60
30520;DHT22;17300;50.374;8.006;2022-07-04T02:22:19;18.70;49.60
30520;DHT22;17300;50.374;8.006;2022-07-04T02:24:47;18.70;49.70
30520;DHT22;17300;50.374;8.006;2022-07-04T02:27:13;18.70;49.80
30520;DHT22;17300;50.374;8.006;2022-07-04T02:29:41;18.60;49.80
30520;DHT22;17300;50.374;8.006;2022-07-04T02:32:08;18.60;49.90
30520;DHT22;17300;50.374;8.006;2022-07-04T02:34:35;18.60;50.00
30520;DHT22;17300;50.374;8.006;2022-07-04T02:37:02;18.60;50.10
30520;DHT22;17300;50.374;8.006;2022-07-04T02:39:29;18.60;50.00
30520;DHT22;17300;50.374;8.006;2022-07-04T02:41:57;18.50;50.00
30520;DHT22;17300;50.374;8.006;2022-07-04T02:44:24;18.50;50.20
30520;DHT22;17300;50.374;8.006;2022-07-04T02:46:51;18.50;50.30
30520;DHT22;17300;50.374;8.006;2022-07-04T02:49:19;18.50;50.40
30520;DHT22;17300;50.374;8.006;2022-07-04T02:51:45;18.40;50.30
30520;DHT22;17300;50.374;8.006;2022-07-04T02:54:12;18.40;50.30
30520;DHT22;17300;50.374;8.006;2022-07-04T02:56:39;18.40;50.40
30520;DHT22;17300;50.374;8.006;2022-07-04T02:59:07;18.30;50.40
30520;DHT22;17300;50.374;8.006;2022-07-04T03:01:34;18.30;50.70
30520;DHT22;17300;50.374;8.006;2022-07-04T03:04:00;18.30;50.70
30520;DHT22;17300;50.374;8.006;2022-07-04T03:06:28;18.20;50.70
30520;DHT22;17300;50.374;8.006;2022-07-04T03:08:55;18.20;50.70
30520;DHT22;17300;50.374;8.006;2022-07-04T03:11:21;18.20;50.80
30520;DHT22;17300;50.374;8.006;2022-07-04T03:13:48;18.20;50.90
30520;DHT22;17300;50.374;8.006;2022-07-04T03:16:16;18.10;51.00
30520;DHT22;17300;50.374;8.006;2022-07-04T03:18:43;18.10;51.10
30520;DHT22;17300;50.374;8.006;2022-07-04T03:21:10;18.10;51.10
30520;DHT22;17300;50.374;8.006;2022-07-04T03:23:37;18.10;51.20
30520;DHT22;17300;50.374;8.006;2022-07-04T03:26:03;18.00;51.20
30520;DHT22;17300;50.374;8.006;2022-07-04T03:28:31;18.10;51.40
30520;DHT22;17300;50.374;8.006;2022-07-04T03:30:57;18.00;51.40
30520;DHT22;17300;50.374;8.006;2022-07-04T03:33:26;18.00;51.40
30520;DHT22;17300;50.374;8.006;2022-07-04T03:35:52;18.00;51.60
30520;DHT22;17300;50.374;8.006;2022-07-04T03:38:19;18.00;51.50
30520;DHT22;17300;50.374;8.006;2022-07-04T03:40:46;18.00;51.60
30520;DHT22;17300;50.374;8.006;2022-07-04T03:43:13;17.90;51.70
30520;DHT22;17300;50.374;8.006;2022-07-04T03:45:40;17.90;51.70
30520;DHT22;17300;50.374;8.006;2022-07-04T03:48:06;17.90;51.70
30520;DHT22;17300;50.374;8.006;2022-07-04T03:50:34;17.90;51.80
30520;DHT22;17300;50.374;8.006;2022-07-04T03:53:01;17.90;52.00
30520;DHT22;17300;50.374;8.006;2022-07-04T03:55:28;17.90;52.00
30520;DHT22;17300;50.374;8.006;2022-07-04T03:57:55;17.90;52.20
30520;DHT22;17300;50.374;8.006;2022-07-04T04:00:21;17.90;52.20
30520;DHT22;17300;50.374;8.006;2022-07-04T04:02:48;17.80;52.20
30520;DHT22;17300;50.374;8.006;2022-07-04T04:05:15;17.90;52.90
30520;DHT22;17300;50.374;8.006;2022-07-04T04:07:59;17.90;52.40
30520;DHT22;17300;50.374;8.006;2022-07-04T04:10:26;17.90;52.70
30520;DHT22;17300;50.374;8.006;2022-07-04T04:12:53;17.90;52.40
30520;DHT22;17300;50.374;8.006;2022-07-04T04:15:20;17.90;52.50
30520;DHT22;17300;50.374;8.006;2022-07-04T04:17:47;17.90;52.60
30520;DHT22;17300;50.374;8.006;2022-07-04T04:20:14;17.90;52.70
30520;DHT22;17300;50.374;8.006;2022-07-04T04:22:41;17.90;52.60
30520;DHT22;17300;50.374;8.006;2022-07-04T04:25:09;17.90;52.60
30520;DHT22;17300;50.374;8.006;2022-07-04T04:27:36;17.90;52.80
30520;DHT22;17300;50.374;8.006;2022-07-04T04:30:03;18.00;52.90
30520;DHT22;17300;50.374;8.006;2022-07-04T04:32:30;18.00;52.90
30520;DHT22;17300;50.374;8.006;2022-07-04T04:34:58;18.00;52.90
30520;DHT22;17300;50.374;8.006;2022-07-04T04:37:24;18.00;52.90
30520;DHT22;17300;50.374;8.006;2022-07-04T04:39:51;18.10;53.00
30520;DHT22;17300;50.374;8.006;2022-07-04T04:42:19;18.10;53.00
30520;DHT22;17300;50.374;8.006;2022-07-04T04:44:46;18.10;53.20
30520;DHT22;17300;50.374;8.006;2022-07-04T04:47:13;18.10;53.10
30520;DHT22;17300;50.374;8.006;2022-07-04T04:49:40;18.20;53.20
30520;DHT22;17300;50.374;8.006;2022-07-04T04:52:07;18.10;53.20
30520;DHT22;17300;50.374;8.006;2022-07-04T04:54:34;18.10;55.70
30520;DHT22;17300;50.374;8.006;2022-07-04T04:57:02;18.10;54.70
30520;DHT22;17300;50.374;8.006;2022-07-04T04:59:30;18.20;54.50
30520;DHT22;17300;50.374;8.006;2022-07-04T05:01:58;18.30;54.40
30520;DHT22;17300;50.374;8.006;2022-07-04T05:04:25;18.40;54.30
30520;DHT22;17300;50.374;8.006;2022-07-04T05:06:52;18.50;54.40
30520;DHT22;17300;50.374;8.006;2022-07-04T05:09:19;18.50;54.30
30520;DHT22;17300;50.374;8.006;2022-07-04T05:11:46;18.60;54.30
30520;DHT22;17300;50.374;8.006;2022-07-04T05:14:13;18.70;54.20
30520;DHT22;17300;50.374;8.006;2022-07-04T05:16:41;18.80;54.80
30520;DHT22;17300;50.374;8.006;2022-07-04T05:19:07;18.80;54.20
30520;DHT22;17300;50.374;8.006;2022-07-04T05:21:34;18.90;54.10
30520;DHT22;17300;50.374;8.006;2022-07-04T05:24:01;19.00;54.10
30520;DHT22;17300;50.374;8.006;2022-07-04T05:26:28;19.00;53.90
30520;DHT22;17300;50.374;8.006;2022-07-04T05:28:55;19.10;53.90
30520;DHT22;17300;50.374;8.006;2022-07-04T05:31:22;19.20;53.90
30520;DHT22;17300;50.374;8.006;2022-07-04T05:33:51;19.30;53.80
30520;DHT22;17300;50.374;8.006;2022-07-04T05:36:18;19.40;53.90
30520;DHT22;17300;50.374;8.006;2022-07-04T05:38:46;19.50;53.70
30520;DHT22;17300;50.374;8.006;2022-07-04T05:41:12;19.60;53.70
30520;DHT22;17300;50.374;8.006;2022-07-04T05:43:39;19.70;53.70
30520;DHT22;17300;50.374;8.006;2022-07-04T05:46:14;19.80;53.80
30520;DHT22;17300;50.374;8.006;2022-07-04T05:48:48;20.00;53.90
30520;DHT22;17300;50.374;8.006;2022-07-04T05:51:16;20.10;54.00
30520;DHT22;17300;50.374;8.006;2022-07-04T05:53:42;20.30;54.10
30520;DHT22;17300;50.374;8.006;2022-07-04T05:56:09;20.50;54.20
30520;DHT22;17300;50.374;8.006;2022-07-04T05:58:36;20.80;54.40
30520;DHT22;17300;50.374;8.006;2022-07-04T06:01:03;21.10;54.80
30520;DHT22;17300;50.374;8.006;2022-07-04T06:03:30;21.40;55.10
30520;DHT22;17300;50.374;8.006;2022-07-04T06:05:56;21.90;55.50
30520;DHT22;17300;50.374;8.006;2022-07-04T06:08:25;22.50;56.10
30520;DHT22;17300;50.374;8.006;2022-07-04T06:10:53;23.20;56.90
30520;DHT22;17300;50.374;8.006;2022-07-04T06:13:20;23.90;57.60
30520;DHT22;17300;50.374;8.006;2022-07-04T06:15:47;24.80;58.00
30520;DHT22;17300;50.374;8.006;2022-07-04T06:18:14;25.80;57.60
30520;DHT22;17300;50.374;8.006;2022-07-04T06:20:41;26.90;57.10
30520;DHT22;17300;50.374;8.006;2022-07-04T06:23:08;28.00;56.40
30520;DHT22;17300;50.374;8.006;2022-07-04T06:25:36;29.20;55.20
30520;DHT22;17300;50.374;8.006;2022-07-04T06:28:03;30.40;53.60
30520;DHT22;17300;50.374;8.006;2022-07-04T06:30:30;31.50;52.20
30520;DHT22;17300;50.374;8.006;2022-07-04T06:32:57;32.70;50.30
30520;DHT22;17300;50.374;8.006;2022-07-04T06:35:27;33.80;48.30
30520;DHT22;17300;50.374;8.006;2022-07-04T06:38:38;34.80;46.30
30520;DHT22;17300;50.374;8.006;2022-07-04T06:44:35;37.10;41.00
30520;DHT22;17300;50.374;8.006;2022-07-04T06:48:02;38.30;39.30
30520;DHT22;17300;50.374;8.006;2022-07-04T07:05:22;43.00;32.20
30520;DHT22;17300;50.374;8.006;2022-07-04T07:08:13;43.80;30.50
30520;DHT22;17300;50.374;8.006;2022-07-04T07:11:12;44.20;29.00
30520;DHT22;17300;50.374;8.006;2022-07-04T07:14:24;44.70;28.30
30520;DHT22;17300;50.374;8.006;2022-07-04T07:16:53;45.30;28.00
30520;DHT22;17300;50.374;8.006;2022-07-04T07:36:30;47.60;23.90
30520;DHT22;17300;50.374;8.006;2022-07-04T07:38:59;47.80;23.20
30520;DHT22;17300;50.374;8.006;2022-07-04T07:41:30;48.10;22.50
30520;DHT22;17300;50.374;8.006;2022-07-04T07:44:04;48.20;22.50
30520;DHT22;17300;50.374;8.006;2022-07-04T07:49:57;48.60;22.70
30520;DHT22;17300;50.374;8.006;2022-07-04T07:52:42;48.90;22.00
30520;DHT22;17300;50.374;8.006;2022-07-04T07:55:08;49.20;21.70
30520;DHT22;17300;50.374;8.006;2022-07-04T07:57:35;49.40;21.30
30520;DHT22;17300;50.374;8.006;2022-07-04T08:00:03;49.60;21.50
30520;DHT22;17300;50.374;8.006;2022-07-04T08:02:31;49.70;21.00
30520;DHT22;17300;50.374;8.006;2022-07-04T08:05:15;49.90;20.80
30520;DHT22;17300;50.374;8.006;2022-07-04T08:07:43;50.20;20.60
30520;DHT22;17300;50.374;8.006;2022-07-04T08:10:10;50.30;20.20
30520;DHT22;17300;50.374;8.006;2022-07-04T08:12:37;50.40;20.20
30520;DHT22;17300;50.374;8.006;2022-07-04T08:15:04;50.50;20.00
30520;DHT22;17300;50.374;8.006;2022-07-04T08:17:31;50.50;19.60
30520;DHT22;17300;50.374;8.006;2022-07-04T08:19:58;50.70;19.60
30520;DHT22;17300;50.374;8.006;2022-07-04T08:22:25;50.70;19.50
30520;DHT22;17300;50.374;8.006;2022-07-04T08:24:53;50.90;19.70
30520;DHT22;17300;50.374;8.006;2022-07-04T08:27:20;51.10;19.00
30520;DHT22;17300;50.374;8.006;2022-07-04T08:29:48;51.20;18.50
30520;DHT22;17300;50.374;8.006;2022-07-04T08:32:15;51.20;18.20
30520;DHT22;17300;50.374;8.006;2022-07-04T08:34:41;51.20;17.70
30520;DHT22;17300;50.374;8.006;2022-07-04T08:37:09;51.10;17.60
30520;DHT22;17300;50.374;8.006;2022-07-04T08:39:36;51.00;17.30
30520;DHT22;17300;50.374;8.006;2022-07-04T08:42:06;50.90;17.60
30520;DHT22;17300;50.374;8.006;2022-07-04T08:44:39;50.80;17.70
30520;DHT22;17300;50.374;8.006;2022-07-04T08:47:08;50.80;18.00
30520;DHT22;17300;50.374;8.006;2022-07-04T08:49:38;50.90;18.00
30520;DHT22;17300;50.374;8.006;2022-07-04T08:52:12;51.00;18.10
30520;DHT22;17300;50.374;8.006;2022-07-04T08:54:39;51.30;17.70
30520;DHT22;17300;50.374;8.006;2022-07-04T08:57:25;51.40;18.30
30520;DHT22;17300;50.374;8.006;2022-07-04T09:00:10;51.70;17.70
30520;DHT22;17300;50.374;8.006;2022-07-04T09:02:38;51.90;17.40
30520;DHT22;17300;50.374;8.006;2022-07-04T09:05:05;52.20;17.20
30520;DHT22;17300;50.374;8.006;2022-07-04T09:07:33;52.40;17.20
30520;DHT22;17300;50.374;8.006;2022-07-04T09:10:00;52.70;17.00
30520;DHT22;17300;50.374;8.006;2022-07-04T09:12:30;52.60;16.90
30520;DHT22;17300;50.374;8.006;2022-07-04T09:14:56;52.70;16.90
30520;DHT22;17300;50.374;8.006;2022-07-04T09:17:24;52.80;16.90
30520;DHT22;17300;50.374;8.006;2022-07-04T09:20:13;52.90;16.70
30520;DHT22;17300;50.374;8.006;2022-07-04T09:22:40;52.90;17.00
30520;DHT22;17300;50.374;8.006;2022-07-04T09:25:07;52.90;16.20
30520;DHT22;17300;50.374;8.006;2022-07-04T09:27:40;52.80;16.40
30520;DHT22;17300;50.374;8.006;2022-07-04T09:30:10;52.90;16.40
30520;DHT22;17300;50.374;8.006;2022-07-04T09:32:39;52.90;16.10
30520;DHT22;17300;50.374;8.006;2022-07-04T09:35:08;53.00;16.20
30520;DHT22;17300;50.374;8.006;2022-07-04T09:37:37;53.00;16.10
30520;DHT22;17300;50.374;8.006;2022-07-04T09:40:07;53.10;16.10
30520;DHT22;17300;50.374;8.006;2022-07-04T09:42:41;53.10;15.90
30520;DHT22;17300;50.374;8.006;2022-07-04T09:45:10;53.20;15.90
30520;DHT22;17300;50.374;8.006;2022-07-04T09:47:39;53.20;16.00
30520;DHT22;17300;50.374;8.006;2022-07-04T09:50:08;53.30;15.90
30520;DHT22;17300;50.374;8.006;2022-07-04T09:52:50;53.30;16.00
30520;DHT22;17300;50.374;8.006;2022-07-04T09:55:26;53.40;16.10
30520;DHT22;17300;50.374;8.006;2022-07-04T09:57:57;53.50;15.80
30520;DHT22;17300;50.374;8.006;2022-07-04T10:00:26;53.50;15.70
30520;DHT22;17300;50.374;8.006;2022-07-04T10:02:55;53.50;15.70
30520;DHT22;17300;50.374;8.006;2022-07-04T10:05:24;53.40;15.40
30520;DHT22;17300;50.374;8.006;2022-07-04T10:07:53;53.20;15.60
30520;DHT22;17300;50.374;8.006;2022-07-04T10:10:31;53.10;15.30
30520;DHT22;17300;50.374;8.006;2022-07-04T10:13:02;53.00;15.60
30520;DHT22;17300;50.374;8.006;2022-07-04T10:15:35;53.00;16.00
30520;DHT22;17300;50.374;8.006;2022-07-04T10:18:03;53.00;15.50
30520;DHT22;17300;50.374;8.006;2022-07-04T10:20:30;52.90;15.40
30520;DHT22;17300;50.374;8.006;2022-07-04T10:22:58;52.80;15.40
30520;DHT22;17300;50.374;8.006;2022-07-04T10:25:25;52.70;15.30
30520;DHT22;17300;50.374;8.006;2022-07-04T10:27:52;52.60;15.50
30520;DHT22;17300;50.374;8.006;2022-07-04T10:30:24;52.50;15.30
30520;DHT22;17300;50.374;8.006;2022-07-04T10:32:53;52.30;15.20
30520;DHT22;17300;50.374;8.006;2022-07-04T10:35:51;52.20;15.30
30520;DHT22;17300;50.374;8.006;2022-07-04T10:38:19;52.10;15.60
30520;DHT22;17300;50.374;8.006;2022-07-04T10:40:48;52.00;15.40
30520;DHT22;17300;50.374;8.006;2022-07-04T10:43:50;51.90;15.40
30520;DHT22;17300;50.374;8.006;2022-07-04T10:46:36;51.80;15.90
30520;DHT22;17300;50.374;8.006;2022-07-04T10:49:06;51.70;15.60
30520;DHT22;17300;50.374;8.006;2022-07-04T10:51:40;51.50;15.50
30520;DHT22;17300;50.374;8.006;2022-07-04T10:54:10;51.40;15.50
30520;DHT22;17300;50.374;8.006;2022-07-04T10:56:40;51.30;15.50
30520;DHT22;17300;50.374;8.006;2022-07-04T10:59:13;51.10;15.50
30520;DHT22;17300;50.374;8.006;2022-07-04T11:01:46;50.90;15.90
30520;DHT22;17300;50.374;8.006;2022-07-04T11:07:58;50.30;15.50
30520;DHT22;17300;50.374;8.006;2022-07-04T11:10:26;50.00;15.70
30520;DHT22;17300;50.374;8.006;2022-07-04T11:13:15;49.90;15.80
30520;DHT22;17300;50.374;8.006;2022-07-04T11:16:00;49.60;15.80
30520;DHT22;17300;50.374;8.006;2022-07-04T11:18:29;49.20;15.60
30520;DHT22;17300;50.374;8.006;2022-07-04T11:20:56;48.80;15.70
30520;DHT22;17300;50.374;8.006;2022-07-04T11:23:23;48.50;15.70
30520;DHT22;17300;50.374;8.006;2022-07-04T11:25:50;48.10;15.60
30520;DHT22;17300;50.374;8.006;2022-07-04T11:28:19;47.80;16.10
30520;DHT22;17300;50.374;8.006;2022-07-04T11:30:48;47.40;16.10
30520;DHT22;17300;50.374;8.006;2022-07-04T11:33:17;47.10;16.20
30520;DHT22;17300;50.374;8.006;2022-07-04T11:36:02;46.60;16.00
30520;DHT22;17300;50.374;8.006;2022-07-04T11:38:43;46.00;16.00
30520;DHT22;17300;50.374;8.006;2022-07-04T11:41:11;45.50;16.10
30520;DHT22;17300;50.374;8.006;2022-07-04T11:43:55;45.00;16.10
30520;DHT22;17300;50.374;8.006;2022-07-04T11:46:40;44.40;16.50
30520;DHT22;17300;50.374;8.006;2022-07-04T11:49:08;43.80;16.30
30520;DHT22;17300;50.374;8.006;2022-07-04T11:51:41;43.30;16.60
30520;DHT22;17300;50.374;8.006;2022-07-04T11:54:08;42.60;17.10
30520;DHT22;17300;50.374;8.006;2022-07-04T11:56:35;42.10;17.10
30520;DHT22;17300;50.374;8.006;2022-07-04T11:59:10;41.50;17.30
30520;DHT22;17300;50.374;8.006;2022-07-04T12:01:37;41.00;17.70
30520;DHT22;17300;50.374;8.006;2022-07-04T12:04:14;40.50;17.90
30520;DHT22;17300;50.374;8.006;2022-07-04T12:06:53;39.90;18.70
30520;DHT22;17300;50.374;8.006;2022-07-04T12:09:19;39.50;19.20
30520;DHT22;17300;50.374;8.006;2022-07-04T12:11:51;39.10;19.00
30520;DHT22;17300;50.374;8.006;2022-07-04T12:14:18;38.60;19.30
30520;DHT22;17300;50.374;8.006;2022-07-04T12:16:45;38.30;19.60
30520;DHT22;17300;50.374;8.006;2022-07-04T12:19:12;37.90;19.90
30520;DHT22;17300;50.374;8.006;2022-07-04T12:21:39;37.60;20.10
30520;DHT22;17300;50.374;8.006;2022-07-04T12:24:09;37.30;20.30
30520;DHT22;17300;50.374;8.006;2022-07-04T12:26:45;37.00;20.20
30520;DHT22;17300;50.374;8.006;2022-07-04T12:29:20;36.70;20.40
30520;DHT22;17300;50.374;8.006;2022-07-04T12:31:51;36.50;20.00
30520;DHT22;17300;50.374;8.006;2022-07-04T12:34:18;36.20;20.40
30520;DHT22;17300;50.374;8.006;2022-07-04T12:36:49;35.80;20.40
30520;DHT22;17300;50.374;8.006;2022-07-04T12:39:28;35.40;20.80
30520;DHT22;17300;50.374;8.006;2022-07-04T12:42:09;35.00;21.60
30520;DHT22;17300;50.374;8.006;2022-07-04T12:44:36;34.70;22.00
30520;DHT22;17300;50.374;8.006;2022-07-04T12:47:05;34.50;22.20
30520;DHT22;17300;50.374;8.006;2022-07-04T12:49:32;34.30;22.20
30520;DHT22;17300;50.374;8.006;2022-07-04T12:52:07;34.10;22.80
30520;DHT22;17300;50.374;8.006;2022-07-04T12:54:36;33.90;23.00
30520;DHT22;17300;50.374;8.006;2022-07-04T12:57:12;33.70;23.00
30520;DHT22;17300;50.374;8.006;2022-07-04T12:59:41;33.60;23.70
30520;DHT22;17300;50.374;8.006;2022-07-04T13:02:09;33.40;23.70
30520;DHT22;17300;50.374;8.006;2022-07-04T13:04:37;33.30;23.30
30520;DHT22;17300;50.374;8.006;2022-07-04T13:07:15;33.20;23.30
30520;DHT22;17300;50.374;8.006;2022-07-04T13:09:44;33.10;23.90
30520;DHT22;17300;50.374;8.006;2022-07-04T13:12:12;33.00;23.90
30520;DHT22;17300;50.374;8.006;2022-07-04T13:14:51;32.90;23.60
30520;DHT22;17300;50.374;8.006;2022-07-04T13:17:18;32.90;23.80
30520;DHT22;17300;50.374;8.006;2022-07-04T13:19:45;32.80;23.90
30520;DHT22;17300;50.374;8.006;2022-07-04T13:22:11;32.70;24.40
30520;DHT22;17300;50.374;8.006;2022-07-04T13:24:38;32.60;24.30
30520;DHT22;17300;50.374;8.006;2022-07-04T13:27:06;32.60;24.50
30520;DHT22;17300;50.374;8.006;2022-07-04T13:29:33;32.50;24.70
30520;DHT22;17300;50.374;8.006;2022-07-04T13:32:00;32.50;24.70
30520;DHT22;17300;50.374;8.006;2022-07-04T13:34:26;32.40;24.80
30520;DHT22;17300;50.374;8.006;2022-07-04T13:36:53;32.40;24.70
30520;DHT22;17300;50.374;8.006;2022-07-04T13:39:21;32.40;24.80
30520;DHT22;17300;50.374;8.006;2022-07-04T13:41:48;32.30;25.00
30520;DHT22;17300;50.374;8.006;2022-07-04T13:44:16;32.30;24.70
30520;DHT22;17300;50.374;8.006;2022-07-04T13:46:43;32.20;25.00
30520;DHT22;17300;50.374;8.006;2022-07-04T13:49:10;32.20;24.90
30520;DHT22;17300;50.374;8.006;2022-07-04T13:51:37;32.10;24.90
30520;DHT22;17300;50.374;8.006;2022-07-04T13:54:04;32.00;25.10
30520;DHT22;17300;50.374;8.006;2022-07-04T13:56:31;31.90;24.70
30520;DHT22;17300;50.374;8.006;2022-07-04T13:58:59;31.80;24.30
30520;DHT22;17300;50.374;8.006;2022-07-04T14:01:27;31.70;24.40
30520;DHT22;17300;50.374;8.006;2022-07-04T14:03:54;31.60;24.80
30520;DHT22;17300;50.374;8.006;2022-07-04T14:06:21;31.40;25.00
30520;DHT22;17300;50.374;8.006;2022-07-04T14:08:48;31.40;25.30
30520;DHT22;17300;50.374;8.006;2022-07-04T14:11:14;31.20;25.40
30520;DHT22;17300;50.374;8.006;2022-07-04T14:13:41;31.20;25.70
30520;DHT22;17300;50.374;8.006;2022-07-04T14:16:08;31.10;25.70
30520;DHT22;17300;50.374;8.006;2022-07-04T14:18:36;31.00;25.70
30520;DHT22;17300;50.374;8.006;2022-07-04T14:21:03;30.90;25.80
30520;DHT22;17300;50.374;8.006;2022-07-04T14:23:30;30.90;25.90
30520;DHT22;17300;50.374;8.006;2022-07-04T14:26:12;30.80;25.70
30520;DHT22;17300;50.374;8.006;2022-07-04T14:28:40;30.70;26.00
30520;DHT22;17300;50.374;8.006;2022-07-04T14:31:06;30.70;26.00
30520;DHT22;17300;50.374;8.006;2022-07-04T14:33:34;30.50;25.90
30520;DHT22;17300;50.374;8.006;2022-07-04T14:36:03;30.50;26.10
30520;DHT22;17300;50.374;8.006;2022-07-04T14:38:32;30.40;26.20
30520;DHT22;17300;50.374;8.006;2022-07-04T14:40:58;30.40;26.00
30520;DHT22;17300;50.374;8.006;2022-07-04T14:43:36;30.30;26.20
30520;DHT22;17300;50.374;8.006;2022-07-04T14:46:03;30.20;26.30
30520;DHT22;17300;50.374;8.006;2022-07-04T14:48:30;30.10;26.50
30520;DHT22;17300;50.374;8.006;2022-07-04T14:50:57;30.10;26.90
30520;DHT22;17300;50.374;8.006;2022-07-04T14:53:25;30.00;26.50
30520;DHT22;17300;50.374;8.006;2022-07-04T14:55:52;29.90;27.00
30520;DHT22;17300;50.374;8.006;2022-07-04T14:58:19;29.80;26.70
30520;DHT22;17300;50.374;8.006;2022-07-04T15:00:45;29.70;26.40
30520;DHT22;17300;50.374;8.006;2022-07-04T15:03:12;29.70;26.30
30520;DHT22;17300;50.374;8.006;2022-07-04T15:05:39;29.60;26.60
30520;DHT22;17300;50.374;8.006;2022-07-04T15:08:06;29.60;26.90
30520;DHT22;17300;50.374;8.006;2022-07-04T15:10:34;29.50;27.00
30520;DHT22;17300;50.374;8.006;2022-07-04T15:13:01;29.40;27.00
30520;DHT22;17300;50.374;8.006;2022-07-04T15:15:31;29.40;27.00
30520;DHT22;17300;50.374;8.006;2022-07-04T15:17:57;29.40;27.00
30520;DHT22;17300;50.374;8.006;2022-07-04T15:20:24;29.30;26.90
30520;DHT22;17300;50.374;8.006;2022-07-04T15:23:09;29.20;27.00
30520;DHT22;17300;50.374;8.006;2022-07-04T15:25:54;29.20;27.20
30520;DHT22;17300;50.374;8.006;2022-07-04T15:28:21;29.10;27.20
30520;DHT22;17300;50.374;8.006;2022-07-04T15:30:48;29.10;27.10
30520;DHT22;17300;50.374;8.006;2022-07-04T15:33:14;29.10;27.30
30520;DHT22;17300;50.374;8.006;2022-07-04T15:35:41;29.10;27.60
30520;DHT22;17300;50.374;8.006;2022-07-04T15:38:08;29.10;27.70
30520;DHT22;17300;50.374;8.006;2022-07-04T15:40:35;29.00;27.70
30520;DHT22;17300;50.374;8.006;2022-07-04T15:43:03;29.00;27.70
30520;DHT22;17300;50.374;8.006;2022-07-04T15:45:30;29.00;27.80
30520;DHT22;17300;50.374;8.006;2022-07-04T15:47:57;29.00;27.80
30520;DHT22;17300;50.374;8.006;2022-07-04T15:50:24;29.00;27.70
30520;DHT22;17300;50.374;8.006;2022-07-04T15:52:52;29.00;27.90
30520;DHT22;17300;50.374;8.006;2022-07-04T15:55:19;28.90;27.70
30520;DHT22;17300;50.374;8.006;2022-07-04T15:57:46;28.90;27.70
30520;DHT22;17300;50.374;8.006;2022-07-04T16:00:15;28.90;27.80
30520;DHT22;17300;50.374;8.006;2022-07-04T16:02:42;28.90;27.90
30520;DHT22;17300;50.374;8.006;2022-07-04T16:05:09;28.80;27.70
30520;DHT22;17300;50.374;8.006;2022-07-04T16:07:37;28.90;27.80
30520;DHT22;17300;50.374;8.006;2022-07-04T16:10:04;28.80;27.70
30520;DHT22;17300;50.374;8.006;2022-07-04T16:12:31;28.80;27.70
30520;DHT22;17300;50.374;8.006;2022-07-04T16:14:58;28.80;27.60
30520;DHT22;17300;50.374;8.006;2022-07-04T16:17:26;28.80;27.60
30520;DHT22;17300;50.374;8.006;2022-07-04T16:19:53;28.70;27.80
30520;DHT22;17300;50.374;8.006;2022-07-04T16:22:19;28.70;27.70
30520;DHT22;17300;50.374;8.006;2022-07-04T16:24:46;28.70;27.70
30520;DHT22;17300;50.374;8.006;2022-07-04T16:27:13;28.60;27.80